Rock Hill, Missouri
Current Conditions -  °F | °C
As of 7:53 PM on Tuesday 21 Oct 2014 (Local Time) from KCPS Reporting Station
Clear Clear  
Wind Chill: 55°   Ceiling: Unl
Heat Index: 55°   Visibility: 10mi
Dew Point: 44°   Wind: 5mph
Humidity: 67%   Direction: 40°NE
Pressure: 30.16"   Gusts: NA
Location:  38.5887°N, 90.3511°W
Report Text: KCPS 220053Z 04004KT 10SM CLR 13/07 A3016 RMK AO2 SLP212 T01280067
Loading
Personal Weather Stations






























Interactive Weather Map New forecast layout! Learn more

10-Day Weather Forecast

Advertisements
Track Severe Weather on mobile